Time;durP1;ratioP1;P1;durP2;ratioP2;P2;SDS_P1;SDS_P2;PMS_P1;PMS_P2;Temp;Humidity;BMP_temperature;BMP_pressure;BME280_temperature;BME280_humidity;BME280_pressure;Samples;Min_cycle;Max_cycle;Signal;HPM_P1;HPM_P2
2022/02/20 00:00:49;;;;;;;;;;;;;;;5.41;46.38;97739.84;4941153;29;19981;-90
2022/02/20 00:03:22;;;;;;;;;;;;;;;5.34;46.78;97749.34;4918841;29;19933;-91
2022/02/20 00:05:51;;;;;;;;;;;;;;;5.41;46.21;97747.91;4940010;29;19933;-90
2022/02/20 00:08:20;;;;;;;;;;;;;;;5.38;46.54;97750.34;4927107;29;20057;-92
2022/02/20 00:10:50;;;;;;;;;;;;;;;5.25;47.08;97755.31;4937064;29;19930;-90
2022/02/20 00:13:21;;;;;;;;;;;;;;;5.29;46.57;97744.00;4923292;29;19926;-91
2022/02/20 00:15:57;;;;;;;;;;;;;;;5.48;46.39;97759.16;4906492;29;20014;-90
2022/02/20 00:18:29;;;;;;;;;;;;;;;5.23;47.83;97746.72;4924879;29;19927;-92
2022/02/20 00:20:57;;;;;;;;;;;;;;;5.03;48.81;97746.84;4939744;29;19934;-91
2022/02/20 00:23:27;;;;;;;;;;;;;;;4.96;49.96;97747.16;4941251;29;20037;-91
2022/02/20 00:26:02;;;;;;;;;;;;;;;5.14;49.83;97750.28;4919363;29;19931;-91
2022/02/20 00:31:40;;;;;;;;;;;;;;;5.03;50.36;97746.06;4936439;29;20429;-91
2022/02/20 00:34:13;;;;;;;;;;;;;;;4.90;52.03;97755.53;4936569;29;20378;-91
2022/02/20 00:36:46;;;;;;;;;;;;;;;4.71;55.01;97760.75;4922113;29;19950;-91
2022/02/20 00:39:16;;;;;;;;;;;;;;;4.34;56.85;97759.28;4927572;29;20014;-91
2022/02/20 00:44:39;;;;;;;;;;;;;;;4.62;57.08;97741.69;4939575;29;20026;-91
2022/02/20 00:50:05;;;;;;;;;;;;;;;4.68;59.41;97751.34;4937854;29;20345;-90
2022/02/20 00:52:37;;;;;;;;;;;;;;;4.62;59.99;97740.88;4919353;29;20378;-91
2022/02/20 00:55:06;;;;;;;;;;;;;;;4.47;60.47;97760.59;4921045;29;19934;-91
2022/02/20 00:57:59;;;;;;;;;;;;;;;4.36;61.24;97756.31;4940286;29;19994;-91
2022/02/20 01:00:50;;;;;;;;;;;;;;;4.22;62.30;97752.63;4926523;29;19935;-90
2022/02/20 01:03:45;;;;;;;;;;;;;;;4.26;62.63;97761.72;4936075;29;19941;-91
2022/02/20 01:06:23;;;;;;;;;;;;;;;4.12;63.51;97761.53;4938333;29;19933;-92
2022/02/20 01:08:55;;;;;;;;;;;;;;;4.06;63.62;97751.88;4903975;29;20000;-92
2022/02/20 01:11:33;;;;;;;;;;;;;;;4.19;63.70;97743.22;4936963;29;19926;-92
2022/02/20 01:14:04;;;;;;;;;;;;;;;4.23;63.48;97746.97;4924291;29;19931;-92
2022/02/20 01:16:39;;;;;;;;;;;;;;;4.16;63.36;97741.09;4933264;29;19927;-93
2022/02/20 01:19:18;;;;;;;;;;;;;;;4.26;63.25;97748.28;4935065;29;19927;-92
2022/02/20 01:21:52;;;;;;;;;;;;;;;4.27;63.64;97728.41;4925166;29;19934;-92
2022/02/20 01:24:23;;;;;;;;;;;;;;;4.29;63.73;97731.63;4920992;29;20029;-92
2022/02/20 01:26:56;;;;;;;;;;;;;;;4.46;63.42;97721.31;4922946;29;19926;-92
2022/02/20 01:29:30;;;;;;;;;;;;;;;4.46;62.95;97715.94;4907051;29;20450;-92
2022/02/20 01:32:06;;;;;;;;;;;;;;;4.35;63.64;97704.41;4940469;29;20016;-88
2022/02/20 01:34:34;;;;;;;;;;;;;;;4.16;64.32;97711.50;4934737;29;19938;-92
2022/02/20 01:37:38;;;;;;;;;;;;;;;4.29;63.09;97697.47;4944104;29;19938;-93
2022/02/20 01:40:10;;;;;;;;;;;;;;;4.26;64.07;97698.03;4920508;29;19927;-92
2022/02/20 01:42:39;;;;;;;;;;;;;;;4.44;63.11;97707.34;4936756;29;20386;-92
2022/02/20 01:45:12;;;;;;;;;;;;;;;4.29;63.59;97693.97;4942381;29;19965;-92
2022/02/20 01:47:41;;;;;;;;;;;;;;;4.38;63.54;97682.38;4940008;29;19931;-93
2022/02/20 01:50:53;;;;;;;;;;;;;;;4.44;63.57;97702.78;4935840;29;19958;-92
2022/02/20 01:53:24;;;;;;;;;;;;;;;4.51;63.05;97689.00;4937426;29;19935;-90
2022/02/20 01:56:00;;;;;;;;;;;;;;;4.35;63.25;97679.41;4936362;29;20420;-91
2022/02/20 01:58:50;;;;;;;;;;;;;;;4.06;64.41;97698.91;4944251;29;19926;-91
2022/02/20 02:01:40;;;;;;;;;;;;;;;4.32;63.55;97683.47;4942558;29;19927;-91
2022/02/20 02:04:19;;;;;;;;;;;;;;;4.20;63.45;97677.59;4923149;29;19934;-91
2022/02/20 02:06:54;;;;;;;;;;;;;;;4.03;64.79;97687.88;4938735;29;19978;-92
2022/02/20 02:09:42;;;;;;;;;;;;;;;4.21;63.97;97698.03;4927170;29;19934;-91
2022/02/20 02:12:36;;;;;;;;;;;;;;;4.24;64.07;97680.53;4937118;29;19939;-91
2022/02/20 02:15:47;;;;;;;;;;;;;;;4.44;63.25;97696.59;4939245;28;19937;-90
2022/02/20 02:18:38;;;;;;;;;;;;;;;4.51;63.07;97691.69;4933150;29;20381;-91
2022/02/20 02:21:19;;;;;;;;;;;;;;;4.26;63.75;97702.56;4923747;29;19927;-92
2022/02/20 02:24:03;;;;;;;;;;;;;;;4.22;64.09;97696.97;4936534;29;19926;-91
2022/02/20 02:27:00;;;;;;;;;;;;;;;4.33;63.96;97689.66;4922492;29;19934;-91
2022/02/20 02:29:57;;;;;;;;;;;;;;;3.99;64.63;97695.69;4917340;29;20918;-91
2022/02/20 02:32:29;;;;;;;;;;;;;;;4.17;64.05;97678.97;4934033;29;19927;-91
2022/02/20 02:38:48;;;;;;;;;;;;;;;4.31;63.69;97672.97;4942675;29;20040;-89
2022/02/20 02:41:24;;;;;;;;;;;;;;;4.46;63.62;97672.91;4920419;29;20465;-92
2022/02/20 02:44:04;;;;;;;;;;;;;;;4.54;63.03;97669.63;4915919;29;19930;-92
2022/02/20 02:46:33;;;;;;;;;;;;;;;4.47;63.37;97686.09;4935296;29;19966;-91
2022/02/20 02:49:07;;;;;;;;;;;;;;;4.53;63.21;97670.72;4936026;29;19926;-91
2022/02/20 02:51:37;;;;;;;;;;;;;;;4.60;62.93;97676.59;4933491;29;20405;-91
2022/02/20 02:54:10;;;;;;;;;;;;;;;4.75;62.68;97661.44;4905962;29;19937;-91
2022/02/20 02:56:47;;;;;;;;;;;;;;;4.47;62.90;97669.13;4937509;29;20025;-92
2022/02/20 02:59:20;;;;;;;;;;;;;;;4.73;62.49;97665.19;4934180;29;19935;-92
2022/02/20 03:01:54;;;;;;;;;;;;;;;4.56;62.69;97667.47;4929788;29;19934;-91
2022/02/20 03:07:21;;;;;;;;;;;;;;;4.66;62.07;97667.41;4902866;29;19986;-92
2022/02/20 03:09:51;;;;;;;;;;;;;;;4.78;62.61;97664.38;4921141;29;19934;-92
2022/02/20 03:12:25;;;;;;;;;;;;;;;4.70;62.54;97679.22;4933917;29;19933;-93
2022/02/20 03:14:54;;;;;;;;;;;;;;;4.79;62.28;97681.31;4938588;29;19977;-91
2022/02/20 03:17:30;;;;;;;;;;;;;;;4.93;61.57;97685.00;4921671;29;20391;-91
2022/02/20 03:20:16;;;;;;;;;;;;;;;4.80;62.05;97664.91;4923826;29;19927;-92
2022/02/20 03:22:46;;;;;;;;;;;;;;;4.76;62.08;97654.97;4919532;29;19934;-91
2022/02/20 03:25:31;;;;;;;;;;;;;;;4.79;61.92;97674.03;4944837;29;19931;-91
2022/02/20 03:28:12;;;;;;;;;;;;;;;4.59;62.69;97680.38;4933900;29;19986;-91
2022/02/20 03:30:55;;;;;;;;;;;;;;;4.55;63.59;97682.00;4923190;29;19927;-92
2022/02/20 03:33:25;;;;;;;;;;;;;;;4.79;62.45;97698.25;4937657;29;19962;-93
2022/02/20 03:35:58;;;;;;;;;;;;;;;4.89;61.96;97698.19;4925124;29;20017;-91
2022/02/20 03:38:26;;;;;;;;;;;;;;;5.05;61.95;97700.78;4946057;29;19931;-92
2022/02/20 03:40:55;;;;;;;;;;;;;;;5.00;62.82;97707.00;4938862;29;19956;-90
2022/02/20 03:43:38;;;;;;;;;;;;;;;5.16;61.81;97711.19;4941475;29;19995;-91
2022/02/20 03:46:09;;;;;;;;;;;;;;;5.00;62.55;97712.41;4922471;29;19927;-91
2022/02/20 03:48:59;;;;;;;;;;;;;;;5.16;61.96;97705.81;4918953;29;19934;-93
2022/02/20 03:51:52;;;;;;;;;;;;;;;5.13;62.16;97709.09;4944554;29;19927;-92
2022/02/20 03:54:30;;;;;;;;;;;;;;;4.94;62.77;97710.81;4938577;29;19927;-91
2022/02/20 03:57:02;;;;;;;;;;;;;;;4.79;63.57;97708.22;4907255;29;19949;-91
2022/02/20 04:00:10;;;;;;;;;;;;;;;5.07;63.22;97704.81;4952244;28;19926;-91
2022/02/20 04:03:03;;;;;;;;;;;;;;;5.04;63.42;97700.00;4953826;28;19927;-92
2022/02/20 04:05:32;;;;;;;;;;;;;;;5.12;62.69;97704.78;4937783;29;19938;-91
2022/02/20 04:08:03;;;;;;;;;;;;;;;4.87;63.35;97699.56;4947669;29;19934;-93
2022/02/20 04:10:31;;;;;;;;;;;;;;;5.10;63.23;97696.16;4925003;29;19926;-91
2022/02/20 04:13:16;;;;;;;;;;;;;;;5.13;63.23;97698.31;4904421;29;19926;-91
2022/02/20 04:15:56;;;;;;;;;;;;;;;5.10;62.59;97709.63;4908254;29;19927;-93
2022/02/20 04:18:33;;;;;;;;;;;;;;;5.00;63.08;97715.88;4922154;29;19954;-91
2022/02/20 04:21:14;;;;;;;;;;;;;;;4.96;63.23;97725.63;4936691;29;20030;-92
2022/02/20 04:23:49;;;;;;;;;;;;;;;4.96;62.95;97730.22;4916855;29;21363;-91
2022/02/20 04:26:22;;;;;;;;;;;;;;;5.10;62.94;97728.47;4933120;29;20017;-91
2022/02/20 04:28:58;;;;;;;;;;;;;;;5.14;62.35;97726.84;4916192;29;19934;-92
2022/02/20 04:31:32;;;;;;;;;;;;;;;5.06;62.72;97734.69;4934759;29;19927;-91
2022/02/20 04:34:07;;;;;;;;;;;;;;;4.97;62.85;97747.97;4930050;29;20006;-92
2022/02/20 04:36:47;;;;;;;;;;;;;;;4.97;63.00;97740.69;4915193;29;19927;-92
2022/02/20 04:39:26;;;;;;;;;;;;;;;4.98;62.84;97758.44;4932901;29;20378;-92
2022/02/20 04:42:01;;;;;;;;;;;;;;;4.95;63.16;97747.44;4922848;29;19927;-92
2022/02/20 04:45:07;;;;;;;;;;;;;;;5.11;62.93;97750.81;4920527;29;19933;-92
2022/02/20 04:47:42;;;;;;;;;;;;;;;5.04;63.01;97747.66;4917033;29;20009;-92
2022/02/20 04:50:17;;;;;;;;;;;;;;;4.94;63.52;97761.97;4932058;29;19974;-91
2022/02/20 04:52:56;;;;;;;;;;;;;;;5.15;62.98;97776.13;4900697;29;20017;-90
2022/02/20 04:55:48;;;;;;;;;;;;;;;5.02;62.80;97761.41;4937093;29;19934;-89
2022/02/20 05:01:32;;;;;;;;;;;;;;;5.08;62.71;97760.28;4904308;29;19954;-92
2022/02/20 05:04:25;;;;;;;;;;;;;;;5.10;62.79;97773.47;4934637;29;19927;-91
2022/02/20 05:07:23;;;;;;;;;;;;;;;5.01;63.13;97770.56;4931152;29;19935;-91
2022/02/20 05:09:58;;;;;;;;;;;;;;;5.06;62.98;97775.94;4919935;29;19934;-92
2022/02/20 05:12:32;;;;;;;;;;;;;;;4.99;63.13;97773.53;4939003;29;19933;-91
2022/02/20 05:15:01;;;;;;;;;;;;;;;5.17;62.51;97768.59;4918356;29;19927;-92
2022/02/20 05:17:38;;;;;;;;;;;;;;;5.13;62.62;97773.72;4915950;29;19931;-92
2022/02/20 05:20:16;;;;;;;;;;;;;;;4.94;63.33;97775.44;4921107;29;19934;-90
2022/02/20 05:22:54;;;;;;;;;;;;;;;5.10;62.90;97779.66;4931007;29;19979;-92
2022/02/20 05:25:22;;;;;;;;;;;;;;;5.12;62.95;97785.56;4898114;29;20519;-90
2022/02/20 05:27:52;;;;;;;;;;;;;;;5.22;62.55;97785.50;4920578;29;19927;-92
2022/02/20 05:30:32;;;;;;;;;;;;;;;5.17;62.73;97773.97;4921500;29;19983;-90
2022/02/20 05:33:20;;;;;;;;;;;;;;;5.16;62.89;97783.91;4921444;29;20413;-91
2022/02/20 05:35:52;;;;;;;;;;;;;;;5.17;63.26;97795.50;4909789;29;19970;-92
2022/02/20 05:38:37;;;;;;;;;;;;;;;5.32;62.52;97791.91;4914504;29;20062;-92
2022/02/20 05:41:08;;;;;;;;;;;;;;;5.19;62.85;97798.72;4917702;29;20412;-93
2022/02/20 05:43:42;;;;;;;;;;;;;;;5.05;63.86;97798.53;4924320;29;20409;-92
2022/02/20 05:46:15;;;;;;;;;;;;;;;5.22;63.18;97800.88;4919022;29;19966;-92
2022/02/20 05:48:45;;;;;;;;;;;;;;;5.32;63.33;97798.09;4902980;29;19967;-91
2022/02/20 05:51:20;;;;;;;;;;;;;;;5.36;62.74;97804.53;4916917;29;20436;-91
2022/02/20 05:54:05;;;;;;;;;;;;;;;5.31;63.17;97804.56;4900445;29;19942;-91
2022/02/20 05:56:34;;;;;;;;;;;;;;;5.21;63.73;97813.50;4933427;29;19970;-92
2022/02/20 05:59:31;;;;;;;;;;;;;;;5.20;64.00;97809.22;4914336;29;20297;-91
2022/02/20 06:02:42;;;;;;;;;;;;;;;5.32;64.31;97824.22;4929879;29;20518;-91
2022/02/20 06:08:26;;;;;;;;;;;;;;;5.40;63.69;97832.53;4902625;29;19938;-91
2022/02/20 06:11:06;;;;;;;;;;;;;;;5.34;63.62;97846.31;4897815;29;20045;-91
2022/02/20 06:13:41;;;;;;;;;;;;;;;5.25;63.60;97848.78;4928315;29;19970;-89
2022/02/20 06:16:41;;;;;;;;;;;;;;;5.15;64.36;97852.31;4908199;29;20576;-90
2022/02/20 06:19:47;;;;;;;;;;;;;;;5.12;64.27;97860.97;4918859;29;19927;-89
2022/02/20 06:22:32;;;;;;;;;;;;;;;5.13;64.33;97864.47;4901796;29;19931;-90
2022/02/20 06:25:31;;;;;;;;;;;;;;;5.19;64.36;97857.97;4906216;29;19927;-91
2022/02/20 06:28:11;;;;;;;;;;;;;;;5.21;64.84;97847.72;4897276;29;20394;-89
2022/02/20 06:30:46;;;;;;;;;;;;;;;5.26;64.33;97845.00;4899012;29;19950;-89
2022/02/20 06:33:28;;;;;;;;;;;;;;;5.28;64.39;97844.75;4898682;29;19942;-92
2022/02/20 06:36:25;;;;;;;;;;;;;;;5.40;63.92;97845.19;4911150;29;20443;-93
2022/02/20 06:38:56;;;;;;;;;;;;;;;5.40;64.19;97843.31;4915436;29;20342;-92
2022/02/20 06:41:55;;;;;;;;;;;;;;;5.48;63.64;97849.97;4910530;29;19947;-92
2022/02/20 06:44:30;;;;;;;;;;;;;;;5.58;63.58;97855.31;4891235;29;20382;-92
2022/02/20 06:47:28;;;;;;;;;;;;;;;5.63;63.35;97857.97;4913080;29;19932;-91
2022/02/20 06:50:34;;;;;;;;;;;;;;;5.37;64.31;97867.28;4870974;29;19928;-90
2022/02/20 06:53:36;;;;;;;;;;;;;;;5.34;64.24;97874.06;4845631;29;20064;-90
2022/02/20 06:56:26;;;;;;;;;;;;;;;5.48;64.09;97885.00;4918364;29;19927;-89
2022/02/20 06:58:59;;;;;;;;;;;;;;;5.61;63.50;97876.31;4904647;29;19927;-89
2022/02/20 07:01:27;;;;;;;;;;;;;;;5.58;63.75;97876.84;4907737;29;19934;-89
2022/02/20 07:03:55;;;;;;;;;;;;;;;5.51;64.11;97881.75;4914571;29;19927;-91
2022/02/20 07:06:24;;;;;;;;;;;;;;;5.36;64.43;97896.13;4915752;29;19931;-93
2022/02/20 07:08:54;;;;;;;;;;;;;;;5.30;64.68;97893.75;4918088;29;19927;-89
2022/02/20 07:11:27;;;;;;;;;;;;;;;5.41;64.69;97896.09;4915362;29;19927;-91
2022/02/20 07:13:56;;;;;;;;;;;;;;;5.37;65.30;97900.44;4925044;29;19956;-91
2022/02/20 07:16:26;;;;;;;;;;;;;;;5.52;64.57;97894.16;4925646;29;19931;-90
2022/02/20 07:22:16;;;;;;;;;;;;;;;5.54;64.25;97905.47;4931921;29;20370;-93
2022/02/20 07:25:32;;;;;;;;;;;;;;;5.61;64.64;97908.66;4931100;29;19927;-93
2022/02/20 07:28:35;;;;;;;;;;;;;;;5.43;65.22;97912.81;4947091;29;19949;-94
2022/02/20 07:31:10;;;;;;;;;;;;;;;5.64;64.74;97912.66;4934569;29;19930;-93
2022/02/20 07:33:46;;;;;;;;;;;;;;;5.49;65.10;97921.66;4930338;29;19927;-82
2022/02/20 08:02:19;;;;;;;;;;;;;;;6.05;64.30;97897.06;4929824;29;19927;-87
2022/02/20 08:04:48;;;;;;;;;;;;;;;5.97;64.39;97898.47;4931388;29;19926;-90
2022/02/20 08:10:12;;;;;;;;;;;;;;;6.07;63.99;97904.84;4935731;29;19954;-91
2022/02/20 08:13:11;;;;;;;;;;;;;;;6.20;63.71;97898.81;4922479;29;19926;-92
2022/02/20 08:15:40;;;;;;;;;;;;;;;6.15;63.50;97901.56;4923266;29;19927;-87
2022/02/20 08:18:10;;;;;;;;;;;;;;;6.19;63.96;97903.41;4931497;29;20285;-88
2022/02/20 08:20:40;;;;;;;;;;;;;;;6.29;63.41;97903.34;4916051;29;19927;-90
2022/02/20 08:23:08;;;;;;;;;;;;;;;6.27;63.44;97899.28;4919804;29;19927;-85
2022/02/20 08:25:37;;;;;;;;;;;;;;;6.29;63.21;97903.34;4931058;29;19978;-89
2022/02/20 08:28:05;;;;;;;;;;;;;;;6.36;63.20;97897.59;4934180;29;19952;-82
2022/02/20 08:30:36;;;;;;;;;;;;;;;6.34;63.14;97896.25;4929839;29;19970;-90
2022/02/20 08:33:05;;;;;;;;;;;;;;;6.19;63.43;97897.22;4928432;29;19966;-90
2022/02/20 08:35:35;;;;;;;;;;;;;;;6.43;63.27;97891.88;4942795;29;19931;-91
2022/02/20 08:38:04;;;;;;;;;;;;;;;6.55;62.97;97901.19;4941688;29;19934;-88
2022/02/20 08:40:36;;;;;;;;;;;;;;;6.50;62.69;97898.56;4943214;29;19927;-90
2022/02/20 08:43:05;;;;;;;;;;;;;;;6.57;62.73;97890.13;4942209;29;19955;-88
2022/02/20 08:45:43;;;;;;;;;;;;;;;6.35;63.27;97900.59;4927206;29;19933;-88
2022/02/20 08:48:11;;;;;;;;;;;;;;;6.61;63.19;97901.97;4918228;29;19938;-87
2022/02/20 08:50:42;;;;;;;;;;;;;;;6.46;63.26;97905.59;4924160;29;19929;-89
2022/02/20 08:53:35;;;;;;;;;;;;;;;6.49;63.15;97901.50;4940490;29;19914;-89
2022/02/20 08:56:08;;;;;;;;;;;;;;;6.69;62.62;97909.41;4916249;29;20545;-91
2022/02/20 08:58:39;;;;;;;;;;;;;;;6.52;63.24;97901.75;4930524;29;19911;-90
2022/02/20 09:01:11;;;;;;;;;;;;;;;6.71;62.48;97899.16;4950844;28;19959;-93
2022/02/20 09:03:41;;;;;;;;;;;;;;;6.56;63.23;97902.00;4949203;29;19935;-93
2022/02/20 09:06:11;;;;;;;;;;;;;;;6.52;62.90;97899.06;4936371;29;19953;-91
2022/02/20 09:08:39;;;;;;;;;;;;;;;6.71;63.06;97904.56;4914045;29;20801;-90
2022/02/20 09:11:07;;;;;;;;;;;;;;;6.78;62.37;97910.41;4908422;29;20030;-90
2022/02/20 09:13:35;;;;;;;;;;;;;;;6.71;62.64;97895.63;4924672;29;19931;-90
2022/02/20 09:16:06;;;;;;;;;;;;;;;7.06;61.68;97902.53;4916781;29;20847;-92
2022/02/20 09:18:34;;;;;;;;;;;;;;;7.14;61.71;97910.00;4918875;29;19995;-90
2022/02/20 09:21:02;;;;;;;;;;;;;;;6.85;62.24;97901.16;4933679;29;19927;-91
2022/02/20 09:23:36;;;;;;;;;;;;;;;7.04;61.83;97902.81;4916055;29;20297;-90
2022/02/20 09:26:08;;;;;;;;;;;;;;;7.05;61.62;97907.13;4912002;29;19974;-91
2022/02/20 09:28:36;;;;;;;;;;;;;;;7.15;61.50;97905.41;4931182;29;19930;-89
2022/02/20 09:31:07;;;;;;;;;;;;;;;7.35;60.85;97910.56;4909568;29;19934;-91
2022/02/20 09:33:34;;;;;;;;;;;;;;;7.41;60.50;97900.50;4914821;29;19931;-89
2022/02/20 09:36:02;;;;;;;;;;;;;;;7.33;60.46;97916.25;4910985;29;19991;-90
2022/02/20 09:38:38;;;;;;;;;;;;;;;7.42;60.50;97913.72;4906617;29;20331;-89
2022/02/20 09:41:09;;;;;;;;;;;;;;;7.51;60.21;97911.97;4912196;29;19934;-93
2022/02/20 09:43:38;;;;;;;;;;;;;;;7.23;60.86;97904.75;4921939;29;19927;-91
2022/02/20 09:46:09;;;;;;;;;;;;;;;7.18;60.90;97894.81;4919967;29;19981;-91
2022/02/20 09:48:38;;;;;;;;;;;;;;;7.48;60.34;97911.75;4931821;29;20408;-93
2022/02/20 09:51:31;;;;;;;;;;;;;;;7.30;60.97;97889.81;4927672;29;20343;-91
2022/02/20 09:54:01;;;;;;;;;;;;;;;7.39;60.45;97898.06;4933691;29;19927;-94
2022/02/20 09:56:29;;;;;;;;;;;;;;;7.59;59.73;97894.28;4932087;29;19982;-92
2022/02/20 09:58:56;;;;;;;;;;;;;;;7.58;59.82;97898.88;4911757;29;19934;-90
2022/02/20 10:01:25;;;;;;;;;;;;;;;7.69;59.48;97886.03;4919409;29;19930;-91
2022/02/20 10:03:54;;;;;;;;;;;;;;;7.67;59.20;97880.13;4936236;29;22715;-92
2022/02/20 10:06:26;;;;;;;;;;;;;;;7.92;58.77;97875.41;4933789;29;19927;-91
2022/02/20 10:08:55;;;;;;;;;;;;;;;7.80;58.89;97876.66;4921430;29;19931;-88
2022/02/20 10:11:25;;;;;;;;;;;;;;;7.91;58.65;97873.81;4910417;29;20449;-88
2022/02/20 10:13:54;;;;;;;;;;;;;;;7.73;59.45;97860.00;4930274;29;20371;-90
2022/02/20 10:16:22;;;;;;;;;;;;;;;7.67;59.47;97861.19;4928559;29;19959;-90
2022/02/20 10:19:00;;;;;;;;;;;;;;;7.51;60.06;97857.91;4933970;29;19927;-91
2022/02/20 10:21:47;;;;;;;;;;;;;;;7.67;59.64;97863.06;4942606;29;19950;-86
2022/02/20 10:24:35;;;;;;;;;;;;;;;7.73;59.23;97860.00;4927371;29;19927;-88
2022/02/20 10:27:23;;;;;;;;;;;;;;;7.92;58.98;97865.38;4924272;29;19994;-89
2022/02/20 10:30:21;;;;;;;;;;;;;;;7.68;59.60;97860.09;4926340;29;19930;-90
2022/02/20 10:33:04;;;;;;;;;;;;;;;7.51;59.87;97863.31;4925741;29;19942;-88
2022/02/20 10:35:38;;;;;;;;;;;;;;;7.64;59.77;97864.47;4924107;29;19933;-90
2022/02/20 10:38:07;;;;;;;;;;;;;;;7.77;59.60;97857.50;4924514;29;19950;-79
2022/02/20 10:40:35;;;;;;;;;;;;;;;7.88;58.95;97867.88;4928124;29;19926;-87
2022/02/20 10:43:05;;;;;;;;;;;;;;;7.77;59.45;97861.00;4928066;29;19927;-82
2022/02/20 10:45:34;;;;;;;;;;;;;;;7.78;59.58;97864.53;4926328;29;19950;-81
2022/02/20 10:48:08;;;;;;;;;;;;;;;7.92;59.33;97861.88;4927700;29;19930;-82
2022/02/20 10:50:36;;;;;;;;;;;;;;;7.83;60.28;97857.16;4924516;29;19935;-85
2022/02/20 10:53:09;;;;;;;;;;;;;;;7.70;59.78;97860.59;4925976;29;19927;-83
2022/02/20 10:55:38;;;;;;;;;;;;;;;7.74;60.36;97848.09;4918745;29;19928;-88
2022/02/20 10:58:11;;;;;;;;;;;;;;;7.91;60.15;97844.03;4905493;29;19932;-90
2022/02/20 11:00:47;;;;;;;;;;;;;;;8.05;59.68;97845.69;4907304;29;20793;-91
2022/02/20 11:03:15;;;;;;;;;;;;;;;8.00;59.97;97843.09;4910772;29;19979;-90
2022/02/20 11:05:45;;;;;;;;;;;;;;;8.02;60.48;97842.78;4913152;29;20799;-91
2022/02/20 11:08:14;;;;;;;;;;;;;;;8.10;60.13;97831.28;4920428;29;20018;-91
2022/02/20 11:10:45;;;;;;;;;;;;;;;7.96;60.09;97830.44;4923758;29;19927;-89
2022/02/20 11:13:17;;;;;;;;;;;;;;;8.01;60.36;97824.94;4910285;29;20668;-89
2022/02/20 11:15:49;;;;;;;;;;;;;;;8.16;59.21;97827.41;4909413;29;19931;-91
2022/02/20 11:18:19;;;;;;;;;;;;;;;8.11;58.95;97816.66;4910505;29;19959;-88
2022/02/20 11:20:47;;;;;;;;;;;;;;;8.01;59.10;97816.81;4914305;29;20066;-91
2022/02/20 11:23:17;;;;;;;;;;;;;;;8.04;59.62;97817.03;4912277;29;19962;-90
2022/02/20 11:25:45;;;;;;;;;;;;;;;7.96;60.03;97822.31;4909920;29;19963;-90
2022/02/20 11:28:15;;;;;;;;;;;;;;;7.69;60.77;97804.91;4912123;29;20441;-88
2022/02/20 11:30:43;;;;;;;;;;;;;;;7.96;60.33;97808.78;4910538;29;19987;-90
2022/02/20 11:33:12;;;;;;;;;;;;;;;7.88;59.43;97802.16;4911440;29;19938;-85
2022/02/20 11:35:45;;;;;;;;;;;;;;;7.90;59.89;97782.94;4911923;29;19959;-90
2022/02/20 11:38:14;;;;;;;;;;;;;;;8.09;59.56;97780.97;4912583;29;19935;-90
2022/02/20 11:40:51;;;;;;;;;;;;;;;7.99;59.89;97764.91;4915576;29;19939;-91
2022/02/20 11:43:22;;;;;;;;;;;;;;;8.03;59.33;97766.72;4916168;29;19930;-91
2022/02/20 11:46:10;;;;;;;;;;;;;;;8.44;58.70;97759.78;4916147;29;19935;-92
2022/02/20 11:49:01;;;;;;;;;;;;;;;8.14;58.32;97740.28;4912415;29;19933;-91
2022/02/20 11:51:30;;;;;;;;;;;;;;;8.17;58.94;97738.88;4914951;29;19927;-88
2022/02/20 11:54:16;;;;;;;;;;;;;;;8.32;58.31;97736.69;4914480;29;19935;-92
2022/02/20 11:57:09;;;;;;;;;;;;;;;8.12;58.05;97750.59;4928591;29;19927;-88
2022/02/20 11:59:38;;;;;;;;;;;;;;;8.26;57.34;97732.50;4917510;29;21591;-93
2022/02/20 12:02:07;;;;;;;;;;;;;;;8.33;57.20;97732.88;4922718;29;19934;-89
2022/02/20 12:04:54;;;;;;;;;;;;;;;8.50;56.76;97731.50;4935420;29;19926;-89
2022/02/20 12:07:29;;;;;;;;;;;;;;;8.25;57.56;97735.47;4930723;29;19927;-91
2022/02/20 12:10:12;;;;;;;;;;;;;;;8.36;56.72;97721.50;4918561;29;19933;-88
2022/02/20 12:13:22;;;;;;;;;;;;;;;8.65;56.54;97729.28;4932838;29;19979;-90
2022/02/20 12:15:52;;;;;;;;;;;;;;;8.64;56.57;97740.44;4933434;28;20045;-89
2022/02/20 12:18:27;;;;;;;;;;;;;;;8.62;55.94;97723.66;4919112;29;19927;-89
2022/02/20 12:21:13;;;;;;;;;;;;;;;8.61;56.00;97724.78;4935200;29;19981;-88
2022/02/20 12:23:49;;;;;;;;;;;;;;;8.58;55.57;97730.81;4934864;29;19934;-88
2022/02/20 12:26:35;;;;;;;;;;;;;;;8.38;56.09;97718.47;4931341;29;20347;-87
2022/02/20 12:29:10;;;;;;;;;;;;;;;8.49;56.09;97711.75;4929629;29;19931;-78
2022/02/20 12:31:53;;;;;;;;;;;;;;;8.51;56.45;97708.72;4899434;29;20163;-84
2022/02/20 12:34:38;;;;;;;;;;;;;;;8.53;56.52;97698.41;4928289;29;19982;-88
2022/02/20 12:37:07;;;;;;;;;;;;;;;8.59;56.26;97699.91;4915213;29;19935;-89
2022/02/20 12:39:41;;;;;;;;;;;;;;;8.89;56.00;97688.41;4923321;29;19949;-94
2022/02/20 12:42:10;;;;;;;;;;;;;;;8.97;54.74;97678.75;4918013;29;19939;-79
2022/02/20 12:44:39;;;;;;;;;;;;;;;8.99;54.60;97676.53;4909219;29;19935;-80
2022/02/20 12:47:08;;;;;;;;;;;;;;;8.90;54.79;97678.38;4925194;29;20404;-93
2022/02/20 12:49:39;;;;;;;;;;;;;;;8.87;54.60;97682.47;4924979;29;19970;-88
2022/02/20 12:52:09;;;;;;;;;;;;;;;8.83;55.14;97675.28;4913002;29;19927;-81
2022/02/20 12:54:37;;;;;;;;;;;;;;;8.92;54.56;97671.53;4925301;29;19935;-81
2022/02/20 12:57:05;;;;;;;;;;;;;;;8.86;54.53;97670.06;4921242;29;19935;-79
2022/02/20 12:59:33;;;;;;;;;;;;;;;8.91;54.42;97672.66;4921126;29;20038;-87
2022/02/20 13:02:04;;;;;;;;;;;;;;;8.77;54.49;97666.47;4910033;29;19935;-88
2022/02/20 13:15:00;;;;;;;;;;;;;;;8.72;55.05;97687.44;4911330;29;19966;-85
2022/02/20 13:17:43;;;;;;;;;;;;;;;8.64;55.31;97684.34;4925684;29;19934;-89
2022/02/20 13:20:44;;;;;;;;;;;;;;;8.73;54.50;97672.78;4908687;29;19928;-87
2022/02/20 13:23:27;;;;;;;;;;;;;;;8.62;55.60;97674.91;4887746;29;21303;-84
2022/02/20 13:26:10;;;;;;;;;;;;;;;8.74;56.03;97677.13;4889887;29;19928;-85
2022/02/20 13:28:39;;;;;;;;;;;;;;;8.85;55.44;97663.03;4893399;29;19988;-79
2022/02/20 13:31:13;;;;;;;;;;;;;;;8.91;54.80;97661.81;4885526;29;20366;-87
2022/02/20 13:33:43;;;;;;;;;;;;;;;9.04;54.85;97637.66;4888330;29;19981;-87
2022/02/20 13:36:31;;;;;;;;;;;;;;;9.04;54.90;97632.25;4883896;29;20302;-82
2022/02/20 13:39:05;;;;;;;;;;;;;;;9.17;54.31;97628.69;4871049;29;19975;-86
2022/02/20 13:41:55;;;;;;;;;;;;;;;9.05;54.90;97617.59;4881589;29;19935;-81
2022/02/20 13:44:24;;;;;;;;;;;;;;;9.05;54.91;97612.97;4884875;29;19927;-83
2022/02/20 13:47:18;;;;;;;;;;;;;;;9.22;54.63;97597.97;4886439;29;19935;-79
2022/02/20 13:49:46;;;;;;;;;;;;;;;8.82;55.75;97609.47;4890574;29;19935;-81
2022/02/20 13:52:22;;;;;;;;;;;;;;;8.85;55.69;97603.44;4873398;29;19927;-84
2022/02/20 13:54:55;;;;;;;;;;;;;;;9.10;55.47;97612.03;4905039;29;19928;-88
2022/02/20 13:57:51;;;;;;;;;;;;;;;8.96;55.52;97608.63;4914294;29;19933;-94
2022/02/20 14:00:20;;;;;;;;;;;;;;;9.12;55.41;97609.84;4928082;29;20350;-85
2022/02/20 14:02:51;;;;;;;;;;;;;;;8.88;55.50;97608.22;4913617;29;20198;-75
2022/02/20 14:05:47;;;;;;;;;;;;;;;8.83;55.87;97621.09;4937535;28;19933;-89
2022/02/20 14:08:43;;;;;;;;;;;;;;;8.83;56.22;97597.50;4916787;29;19997;-90
2022/02/20 14:11:14;;;;;;;;;;;;;;;8.79;55.83;97591.13;4913166;29;19934;-92
2022/02/20 14:13:57;;;;;;;;;;;;;;;8.75;56.38;97600.16;4921251;29;19994;-83
2022/02/20 14:16:25;;;;;;;;;;;;;;;8.82;56.30;97593.22;4925432;29;19935;-89
2022/02/20 14:18:55;;;;;;;;;;;;;;;8.93;55.88;97597.28;4923251;29;19989;-87
2022/02/20 14:21:24;;;;;;;;;;;;;;;8.77;56.75;97590.63;4927635;29;19927;-89
2022/02/20 14:23:52;;;;;;;;;;;;;;;8.88;56.18;97597.41;4917365;29;20001;-88
2022/02/20 14:26:36;;;;;;;;;;;;;;;8.72;56.67;97592.66;4915667;29;19955;-91
2022/02/20 14:29:11;;;;;;;;;;;;;;;8.84;56.62;97579.34;4927239;29;19935;-88
2022/02/20 14:31:39;;;;;;;;;;;;;;;9.01;55.80;97584.13;4945518;29;19986;-88
2022/02/20 14:34:37;;;;;;;;;;;;;;;8.78;56.68;97581.38;4935673;29;19931;-91
2022/02/20 14:37:06;;;;;;;;;;;;;;;8.79;56.90;97584.88;4929710;29;20045;-93
2022/02/20 14:39:34;;;;;;;;;;;;;;;8.83;56.69;97578.56;4914494;29;20413;-87
2022/02/20 14:42:06;;;;;;;;;;;;;;;8.73;56.62;97575.28;4935166;29;20041;-91
2022/02/20 14:44:34;;;;;;;;;;;;;;;8.83;56.77;97586.69;4927962;29;19934;-86
2022/02/20 14:47:06;;;;;;;;;;;;;;;8.79;57.17;97555.91;4927318;29;19927;-78
2022/02/20 14:49:34;;;;;;;;;;;;;;;9.02;56.50;97554.00;4926611;29;19933;-76
2022/02/20 14:52:02;;;;;;;;;;;;;;;9.00;56.24;97549.97;4923286;29;19926;-88